sensor_id;sensor_type;location;lat;lon;timestamp;P1;durP1;ratioP1;P2;durP2;ratioP2
31782;SDS011;18351;47.560;9.708;2024-02-23T00:01:36;0.40;;;0.40;;
31782;SDS011;18351;47.560;9.708;2024-02-23T00:04:01;0.40;;;0.40;;
31782;SDS011;18351;47.560;9.708;2024-02-23T00:06:27;0.40;;;0.40;;
31782;SDS011;18351;47.560;9.708;2024-02-23T00:08:53;0.40;;;0.40;;
31782;SDS011;18351;47.560;9.708;2024-02-23T00:11:20;0.60;;;0.60;;
31782;SDS011;18351;47.560;9.708;2024-02-23T00:13:46;0.52;;;0.52;;
31782;SDS011;18351;47.560;9.708;2024-02-23T00:16:11;0.75;;;0.50;;
31782;SDS011;18351;47.560;9.708;2024-02-23T00:18:37;0.50;;;0.50;;
31782;SDS011;18351;47.560;9.708;2024-02-23T00:21:06;1.02;;;0.60;;
31782;SDS011;18351;47.560;9.708;2024-02-23T00:23:32;0.50;;;0.50;;
31782;SDS011;18351;47.560;9.708;2024-02-23T00:25:57;0.60;;;0.60;;
31782;SDS011;18351;47.560;9.708;2024-02-23T00:28:23;0.50;;;0.50;;
31782;SDS011;18351;47.560;9.708;2024-02-23T00:30:48;0.50;;;0.50;;
31782;SDS011;18351;47.560;9.708;2024-02-23T00:33:14;0.50;;;0.50;;
31782;SDS011;18351;47.560;9.708;2024-02-23T00:35:39;0.52;;;0.52;;
31782;SDS011;18351;47.560;9.708;2024-02-23T00:38:05;0.43;;;0.43;;
31782;SDS011;18351;47.560;9.708;2024-02-23T00:40:32;0.50;;;0.50;;
31782;SDS011;18351;47.560;9.708;2024-02-23T00:42:58;0.52;;;0.52;;
31782;SDS011;18351;47.560;9.708;2024-02-23T00:45:25;0.50;;;0.50;;
31782;SDS011;18351;47.560;9.708;2024-02-23T00:47:50;0.60;;;0.60;;
31782;SDS011;18351;47.560;9.708;2024-02-23T00:50:16;0.50;;;0.50;;
31782;SDS011;18351;47.560;9.708;2024-02-23T00:52:42;0.50;;;0.50;;
31782;SDS011;18351;47.560;9.708;2024-02-23T00:55:07;0.60;;;0.60;;
31782;SDS011;18351;47.560;9.708;2024-02-23T00:57:34;0.50;;;0.50;;
31782;SDS011;18351;47.560;9.708;2024-02-23T01:00:00;0.50;;;0.50;;
31782;SDS011;18351;47.560;9.708;2024-02-23T01:02:28;0.50;;;0.45;;
31782;SDS011;18351;47.560;9.708;2024-02-23T01:04:54;0.65;;;0.60;;
31782;SDS011;18351;47.560;9.708;2024-02-23T01:07:22;0.65;;;0.65;;
31782;SDS011;18351;47.560;9.708;2024-02-23T01:09:48;1.30;;;1.20;;
31782;SDS011;18351;47.560;9.708;2024-02-23T01:12:13;1.30;;;1.20;;
31782;SDS011;18351;47.560;9.708;2024-02-23T01:14:39;2.13;;;1.63;;
31782;SDS011;18351;47.560;9.708;2024-02-23T01:17:04;2.63;;;2.03;;
31782;SDS011;18351;47.560;9.708;2024-02-23T01:19:30;3.83;;;2.67;;
31782;SDS011;18351;47.560;9.708;2024-02-23T01:21:56;3.92;;;2.97;;
31782;SDS011;18351;47.560;9.708;2024-02-23T01:24:25;4.20;;;2.60;;
31782;SDS011;18351;47.560;9.708;2024-02-23T01:26:54;7.28;;;4.22;;
31782;SDS011;18351;47.560;9.708;2024-02-23T01:29:20;1.42;;;1.20;;
31782;SDS011;18351;47.560;9.708;2024-02-23T01:31:50;1.77;;;0.68;;
31782;SDS011;18351;47.560;9.708;2024-02-23T01:34:16;0.70;;;0.70;;
31782;SDS011;18351;47.560;9.708;2024-02-23T01:36:42;0.60;;;0.60;;
31782;SDS011;18351;47.560;9.708;2024-02-23T01:39:07;0.60;;;0.60;;
31782;SDS011;18351;47.560;9.708;2024-02-23T01:41:33;0.77;;;0.50;;
31782;SDS011;18351;47.560;9.708;2024-02-23T01:43:58;0.60;;;0.60;;
31782;SDS011;18351;47.560;9.708;2024-02-23T01:46:24;0.70;;;0.70;;
31782;SDS011;18351;47.560;9.708;2024-02-23T01:48:49;0.70;;;0.70;;
31782;SDS011;18351;47.560;9.708;2024-02-23T01:51:15;1.10;;;0.88;;
31782;SDS011;18351;47.560;9.708;2024-02-23T01:53:41;0.63;;;0.63;;
31782;SDS011;18351;47.560;9.708;2024-02-23T01:56:07;0.60;;;0.60;;
31782;SDS011;18351;47.560;9.708;2024-02-23T01:58:34;0.60;;;0.60;;
31782;SDS011;18351;47.560;9.708;2024-02-23T02:01:01;0.60;;;0.60;;
31782;SDS011;18351;47.560;9.708;2024-02-23T02:03:27;0.60;;;0.60;;
31782;SDS011;18351;47.560;9.708;2024-02-23T02:05:52;0.60;;;0.60;;
31782;SDS011;18351;47.560;9.708;2024-02-23T02:08:19;1.42;;;0.73;;
31782;SDS011;18351;47.560;9.708;2024-02-23T02:10:45;0.63;;;0.63;;
31782;SDS011;18351;47.560;9.708;2024-02-23T02:13:12;9.00;;;1.88;;
31782;SDS011;18351;47.560;9.708;2024-02-23T02:15:38;0.60;;;0.60;;
31782;SDS011;18351;47.560;9.708;2024-02-23T02:18:03;0.60;;;0.60;;
31782;SDS011;18351;47.560;9.708;2024-02-23T02:20:31;0.60;;;0.60;;
31782;SDS011;18351;47.560;9.708;2024-02-23T02:22:57;4.45;;;0.93;;
31782;SDS011;18351;47.560;9.708;2024-02-23T02:25:23;0.70;;;0.70;;
31782;SDS011;18351;47.560;9.708;2024-02-23T02:27:49;1.10;;;0.60;;
31782;SDS011;18351;47.560;9.708;2024-02-23T02:30:14;0.52;;;0.52;;
31782;SDS011;18351;47.560;9.708;2024-02-23T02:32:40;0.60;;;0.60;;
31782;SDS011;18351;47.560;9.708;2024-02-23T02:35:06;0.98;;;0.60;;
31782;SDS011;18351;47.560;9.708;2024-02-23T02:37:32;0.60;;;0.60;;
31782;SDS011;18351;47.560;9.708;2024-02-23T02:39:57;0.73;;;0.60;;
31782;SDS011;18351;47.560;9.708;2024-02-23T02:42:23;0.60;;;0.60;;
31782;SDS011;18351;47.560;9.708;2024-02-23T02:44:48;1.20;;;1.02;;
31782;SDS011;18351;47.560;9.708;2024-02-23T02:47:14;0.70;;;0.70;;
31782;SDS011;18351;47.560;9.708;2024-02-23T02:49:39;0.70;;;0.70;;
31782;SDS011;18351;47.560;9.708;2024-02-23T02:52:05;1.67;;;0.80;;
31782;SDS011;18351;47.560;9.708;2024-02-23T02:54:33;0.70;;;0.70;;
31782;SDS011;18351;47.560;9.708;2024-02-23T02:56:58;2.47;;;0.90;;
31782;SDS011;18351;47.560;9.708;2024-02-23T02:59:24;0.73;;;0.73;;
31782;SDS011;18351;47.560;9.708;2024-02-23T03:01:49;1.15;;;0.82;;
31782;SDS011;18351;47.560;9.708;2024-02-23T03:04:15;0.70;;;0.70;;
31782;SDS011;18351;47.560;9.708;2024-02-23T03:06:40;2.53;;;0.82;;
31782;SDS011;18351;47.560;9.708;2024-02-23T03:09:06;2.35;;;0.82;;
31782;SDS011;18351;47.560;9.708;2024-02-23T03:11:32;0.82;;;0.82;;
31782;SDS011;18351;47.560;9.708;2024-02-23T03:13:57;2.30;;;0.93;;
31782;SDS011;18351;47.560;9.708;2024-02-23T03:16:23;0.88;;;0.88;;
31782;SDS011;18351;47.560;9.708;2024-02-23T03:18:51;1.65;;;0.90;;
31782;SDS011;18351;47.560;9.708;2024-02-23T03:21:19;2.05;;;0.80;;
31782;SDS011;18351;47.560;9.708;2024-02-23T03:23:44;2.55;;;1.20;;
31782;SDS011;18351;47.560;9.708;2024-02-23T03:26:10;5.57;;;0.90;;
31782;SDS011;18351;47.560;9.708;2024-02-23T03:28:35;1.95;;;0.93;;
31782;SDS011;18351;47.560;9.708;2024-02-23T03:31:01;1.10;;;0.90;;
31782;SDS011;18351;47.560;9.708;2024-02-23T03:33:27;4.18;;;0.90;;
31782;SDS011;18351;47.560;9.708;2024-02-23T03:35:52;1.58;;;0.85;;
31782;SDS011;18351;47.560;9.708;2024-02-23T03:38:18;1.85;;;0.88;;
31782;SDS011;18351;47.560;9.708;2024-02-23T03:40:43;4.25;;;1.05;;
31782;SDS011;18351;47.560;9.708;2024-02-23T03:43:09;4.63;;;2.58;;
31782;SDS011;18351;47.560;9.708;2024-02-23T03:45:34;1.50;;;1.15;;
31782;SDS011;18351;47.560;9.708;2024-02-23T03:48:00;2.30;;;0.80;;
31782;SDS011;18351;47.560;9.708;2024-02-23T03:50:28;1.90;;;0.95;;
31782;SDS011;18351;47.560;9.708;2024-02-23T03:52:54;1.20;;;0.80;;
31782;SDS011;18351;47.560;9.708;2024-02-23T03:55:20;3.03;;;0.95;;
31782;SDS011;18351;47.560;9.708;2024-02-23T03:57:46;2.88;;;0.93;;
31782;SDS011;18351;47.560;9.708;2024-02-23T04:00:12;2.05;;;0.90;;
31782;SDS011;18351;47.560;9.708;2024-02-23T04:02:38;3.20;;;0.95;;
31782;SDS011;18351;47.560;9.708;2024-02-23T04:05:04;1.13;;;0.90;;
31782;SDS011;18351;47.560;9.708;2024-02-23T04:07:30;1.35;;;0.90;;
31782;SDS011;18351;47.560;9.708;2024-02-23T04:09:56;3.50;;;0.80;;
31782;SDS011;18351;47.560;9.708;2024-02-23T04:12:21;1.15;;;0.90;;
31782;SDS011;18351;47.560;9.708;2024-02-23T04:14:47;0.80;;;0.80;;
31782;SDS011;18351;47.560;9.708;2024-02-23T04:17:13;0.80;;;0.80;;
31782;SDS011;18351;47.560;9.708;2024-02-23T04:19:39;2.33;;;1.02;;
31782;SDS011;18351;47.560;9.708;2024-02-23T04:22:05;2.45;;;1.02;;
31782;SDS011;18351;47.560;9.708;2024-02-23T04:24:33;3.10;;;0.95;;
31782;SDS011;18351;47.560;9.708;2024-02-23T04:26:59;1.27;;;1.10;;
31782;SDS011;18351;47.560;9.708;2024-02-23T04:29:25;5.75;;;1.10;;
31782;SDS011;18351;47.560;9.708;2024-02-23T04:31:50;1.10;;;0.90;;
31782;SDS011;18351;47.560;9.708;2024-02-23T04:34:15;1.75;;;0.88;;
31782;SDS011;18351;47.560;9.708;2024-02-23T04:36:41;2.05;;;0.93;;
31782;SDS011;18351;47.560;9.708;2024-02-23T04:39:07;1.42;;;1.00;;
31782;SDS011;18351;47.560;9.708;2024-02-23T04:41:33;4.32;;;1.00;;
31782;SDS011;18351;47.560;9.708;2024-02-23T04:43:58;4.85;;;1.20;;
31782;SDS011;18351;47.560;9.708;2024-02-23T04:46:24;1.40;;;1.10;;
31782;SDS011;18351;47.560;9.708;2024-02-23T04:48:50;1.52;;;1.00;;
31782;SDS011;18351;47.560;9.708;2024-02-23T04:51:16;4.65;;;1.15;;
31782;SDS011;18351;47.560;9.708;2024-02-23T04:53:41;1.02;;;0.93;;
31782;SDS011;18351;47.560;9.708;2024-02-23T04:56:07;2.90;;;0.90;;
31782;SDS011;18351;47.560;9.708;2024-02-23T04:58:33;1.80;;;1.00;;
31782;SDS011;18351;47.560;9.708;2024-02-23T05:00:59;0.90;;;0.90;;
31782;SDS011;18351;47.560;9.708;2024-02-23T05:03:25;2.60;;;1.05;;
31782;SDS011;18351;47.560;9.708;2024-02-23T05:05:51;2.95;;;0.98;;
31782;SDS011;18351;47.560;9.708;2024-02-23T05:08:19;0.90;;;0.90;;
31782;SDS011;18351;47.560;9.708;2024-02-23T05:10:48;1.20;;;1.10;;
31782;SDS011;18351;47.560;9.708;2024-02-23T05:13:13;0.80;;;0.80;;
31782;SDS011;18351;47.560;9.708;2024-02-23T05:15:39;1.50;;;0.98;;
31782;SDS011;18351;47.560;9.708;2024-02-23T05:18:05;0.95;;;0.80;;
31782;SDS011;18351;47.560;9.708;2024-02-23T05:20:31;0.90;;;0.90;;
31782;SDS011;18351;47.560;9.708;2024-02-23T05:22:56;4.88;;;1.23;;
31782;SDS011;18351;47.560;9.708;2024-02-23T05:25:22;3.67;;;1.10;;
31782;SDS011;18351;47.560;9.708;2024-02-23T05:27:47;2.42;;;1.10;;
31782;SDS011;18351;47.560;9.708;2024-02-23T05:30:13;3.30;;;1.38;;
31782;SDS011;18351;47.560;9.708;2024-02-23T05:32:39;5.47;;;2.75;;
31782;SDS011;18351;47.560;9.708;2024-02-23T05:35:05;16.33;;;4.88;;
31782;SDS011;18351;47.560;9.708;2024-02-23T05:37:31;12.40;;;6.28;;
31782;SDS011;18351;47.560;9.708;2024-02-23T05:39:56;4.88;;;1.40;;
31782;SDS011;18351;47.560;9.708;2024-02-23T05:42:24;6.00;;;3.97;;
31782;SDS011;18351;47.560;9.708;2024-02-23T05:44:50;6.45;;;2.85;;
31782;SDS011;18351;47.560;9.708;2024-02-23T05:47:16;2.53;;;2.10;;
31782;SDS011;18351;47.560;9.708;2024-02-23T05:49:42;2.33;;;1.63;;
31782;SDS011;18351;47.560;9.708;2024-02-23T05:52:08;3.47;;;1.50;;
31782;SDS011;18351;47.560;9.708;2024-02-23T05:54:34;3.85;;;1.90;;
31782;SDS011;18351;47.560;9.708;2024-02-23T05:57:00;2.78;;;2.10;;
31782;SDS011;18351;47.560;9.708;2024-02-23T05:59:26;4.30;;;2.15;;
31782;SDS011;18351;47.560;9.708;2024-02-23T06:01:52;2.45;;;1.70;;
31782;SDS011;18351;47.560;9.708;2024-02-23T06:04:21;5.80;;;2.05;;
31782;SDS011;18351;47.560;9.708;2024-02-23T06:06:47;2.50;;;1.67;;
31782;SDS011;18351;47.560;9.708;2024-02-23T06:09:13;2.40;;;1.80;;
31782;SDS011;18351;47.560;9.708;2024-02-23T06:11:38;3.35;;;2.20;;
31782;SDS011;18351;47.560;9.708;2024-02-23T06:14:04;2.28;;;1.80;;
31782;SDS011;18351;47.560;9.708;2024-02-23T06:16:29;3.67;;;1.67;;
31782;SDS011;18351;47.560;9.708;2024-02-23T06:18:55;1.92;;;1.70;;
31782;SDS011;18351;47.560;9.708;2024-02-23T06:21:20;3.15;;;1.45;;
31782;SDS011;18351;47.560;9.708;2024-02-23T06:23:46;3.95;;;1.38;;
31782;SDS011;18351;47.560;9.708;2024-02-23T06:26:11;3.95;;;1.60;;
31782;SDS011;18351;47.560;9.708;2024-02-23T06:28:37;3.45;;;2.30;;
31782;SDS011;18351;47.560;9.708;2024-02-23T06:31:06;4.55;;;1.98;;
31782;SDS011;18351;47.560;9.708;2024-02-23T06:33:32;4.93;;;2.33;;
31782;SDS011;18351;47.560;9.708;2024-02-23T06:35:57;5.88;;;2.60;;
31782;SDS011;18351;47.560;9.708;2024-02-23T06:38:23;2.28;;;2.03;;
31782;SDS011;18351;47.560;9.708;2024-02-23T06:40:48;2.42;;;1.92;;
31782;SDS011;18351;47.560;9.708;2024-02-23T06:43:14;3.08;;;1.80;;
31782;SDS011;18351;47.560;9.708;2024-02-23T06:45:39;3.80;;;2.13;;
31782;SDS011;18351;47.560;9.708;2024-02-23T06:48:05;2.05;;;1.60;;
31782;SDS011;18351;47.560;9.708;2024-02-23T06:50:31;2.92;;;1.58;;
31782;SDS011;18351;47.560;9.708;2024-02-23T06:52:56;2.35;;;1.20;;
31782;SDS011;18351;47.560;9.708;2024-02-23T06:55:22;2.55;;;1.63;;
31782;SDS011;18351;47.560;9.708;2024-02-23T06:57:47;1.77;;;1.50;;
31782;SDS011;18351;47.560;9.708;2024-02-23T07:00:13;2.13;;;1.77;;
31782;SDS011;18351;47.560;9.708;2024-02-23T07:02:39;3.60;;;1.63;;
31782;SDS011;18351;47.560;9.708;2024-02-23T07:05:05;2.83;;;1.80;;
31782;SDS011;18351;47.560;9.708;2024-02-23T07:07:31;5.65;;;1.70;;
31782;SDS011;18351;47.560;9.708;2024-02-23T07:09:58;3.65;;;1.60;;
31782;SDS011;18351;47.560;9.708;2024-02-23T07:12:24;2.45;;;1.35;;
31782;SDS011;18351;47.560;9.708;2024-02-23T07:14:52;4.25;;;1.50;;
31782;SDS011;18351;47.560;9.708;2024-02-23T07:17:18;1.65;;;1.50;;
31782;SDS011;18351;47.560;9.708;2024-02-23T07:19:44;1.98;;;1.35;;
31782;SDS011;18351;47.560;9.708;2024-02-23T07:22:10;1.80;;;1.42;;
31782;SDS011;18351;47.560;9.708;2024-02-23T07:24:42;2.13;;;1.55;;
31782;SDS011;18351;47.560;9.708;2024-02-23T07:27:07;3.50;;;1.48;;
31782;SDS011;18351;47.560;9.708;2024-02-23T07:29:33;4.95;;;1.40;;
31782;SDS011;18351;47.560;9.708;2024-02-23T07:31:59;3.17;;;1.40;;
31782;SDS011;18351;47.560;9.708;2024-02-23T07:34:24;6.93;;;1.40;;
31782;SDS011;18351;47.560;9.708;2024-02-23T07:36:53;3.30;;;1.33;;
31782;SDS011;18351;47.560;9.708;2024-02-23T07:39:19;2.20;;;1.20;;
31782;SDS011;18351;47.560;9.708;2024-02-23T07:41:46;3.10;;;1.25;;
31782;SDS011;18351;47.560;9.708;2024-02-23T07:44:11;3.13;;;1.70;;
31782;SDS011;18351;47.560;9.708;2024-02-23T07:46:37;3.35;;;1.60;;
31782;SDS011;18351;47.560;9.708;2024-02-23T07:49:03;2.47;;;1.50;;
31782;SDS011;18351;47.560;9.708;2024-02-23T07:51:30;2.28;;;1.30;;
31782;SDS011;18351;47.560;9.708;2024-02-23T07:53:56;3.03;;;1.33;;
31782;SDS011;18351;47.560;9.708;2024-02-23T07:56:22;2.55;;;1.00;;
31782;SDS011;18351;47.560;9.708;2024-02-23T07:58:47;2.10;;;1.10;;
31782;SDS011;18351;47.560;9.708;2024-02-23T08:01:16;2.72;;;1.17;;
31782;SDS011;18351;47.560;9.708;2024-02-23T08:03:42;2.33;;;1.13;;
31782;SDS011;18351;47.560;9.708;2024-02-23T08:06:07;5.63;;;1.27;;
31782;SDS011;18351;47.560;9.708;2024-02-23T08:08:33;2.58;;;1.25;;
31782;SDS011;18351;47.560;9.708;2024-02-23T08:11:01;1.20;;;1.10;;
31782;SDS011;18351;47.560;9.708;2024-02-23T08:13:27;1.85;;;1.10;;
31782;SDS011;18351;47.560;9.708;2024-02-23T08:15:53;2.45;;;1.70;;
31782;SDS011;18351;47.560;9.708;2024-02-23T08:18:18;3.40;;;1.80;;
31782;SDS011;18351;47.560;9.708;2024-02-23T08:20:44;3.50;;;2.00;;
31782;SDS011;18351;47.560;9.708;2024-02-23T08:23:09;6.30;;;1.75;;
31782;SDS011;18351;47.560;9.708;2024-02-23T08:25:35;3.08;;;1.75;;
31782;SDS011;18351;47.560;9.708;2024-02-23T08:28:01;2.65;;;1.88;;
31782;SDS011;18351;47.560;9.708;2024-02-23T08:30:27;4.05;;;1.60;;
31782;SDS011;18351;47.560;9.708;2024-02-23T08:32:52;4.00;;;1.90;;
31782;SDS011;18351;47.560;9.708;2024-02-23T08:35:18;2.10;;;1.60;;
31782;SDS011;18351;47.560;9.708;2024-02-23T08:37:44;3.25;;;1.60;;
31782;SDS011;18351;47.560;9.708;2024-02-23T08:40:09;3.80;;;1.50;;
31782;SDS011;18351;47.560;9.708;2024-02-23T08:42:36;1.98;;;1.38;;
31782;SDS011;18351;47.560;9.708;2024-02-23T08:45:01;3.13;;;1.60;;
31782;SDS011;18351;47.560;9.708;2024-02-23T08:47:27;3.92;;;1.55;;
31782;SDS011;18351;47.560;9.708;2024-02-23T08:49:57;1.58;;;1.45;;
31782;SDS011;18351;47.560;9.708;2024-02-23T08:52:23;2.05;;;1.50;;
31782;SDS011;18351;47.560;9.708;2024-02-23T08:54:48;3.40;;;1.60;;
31782;SDS011;18351;47.560;9.708;2024-02-23T08:57:14;4.43;;;1.48;;
31782;SDS011;18351;47.560;9.708;2024-02-23T08:59:44;2.80;;;1.70;;
31782;SDS011;18351;47.560;9.708;2024-02-23T09:02:10;3.20;;;1.35;;
31782;SDS011;18351;47.560;9.708;2024-02-23T09:04:36;4.53;;;1.90;;
31782;SDS011;18351;47.560;9.708;2024-02-23T09:07:02;2.15;;;1.65;;
31782;SDS011;18351;47.560;9.708;2024-02-23T09:09:27;3.85;;;1.67;;
31782;SDS011;18351;47.560;9.708;2024-02-23T09:11:53;5.18;;;1.88;;
31782;SDS011;18351;47.560;9.708;2024-02-23T09:14:18;2.28;;;1.58;;
31782;SDS011;18351;47.560;9.708;2024-02-23T09:16:44;3.30;;;1.95;;
31782;SDS011;18351;47.560;9.708;2024-02-23T09:19:11;2.58;;;1.67;;
31782;SDS011;18351;47.560;9.708;2024-02-23T09:21:37;3.30;;;1.70;;
31782;SDS011;18351;47.560;9.708;2024-02-23T09:24:03;3.03;;;1.50;;
31782;SDS011;18351;47.560;9.708;2024-02-23T09:26:29;2.38;;;1.55;;
31782;SDS011;18351;47.560;9.708;2024-02-23T09:28:56;2.63;;;1.67;;
31782;SDS011;18351;47.560;9.708;2024-02-23T09:31:21;2.50;;;1.63;;
31782;SDS011;18351;47.560;9.708;2024-02-23T09:33:47;3.47;;;1.65;;
31782;SDS011;18351;47.560;9.708;2024-02-23T09:36:15;5.05;;;1.70;;
31782;SDS011;18351;47.560;9.708;2024-02-23T09:38:41;7.88;;;2.10;;
31782;SDS011;18351;47.560;9.708;2024-02-23T09:41:08;1.85;;;1.40;;
31782;SDS011;18351;47.560;9.708;2024-02-23T09:43:42;2.38;;;1.63;;
31782;SDS011;18351;47.560;9.708;2024-02-23T09:46:11;2.17;;;1.50;;
31782;SDS011;18351;47.560;9.708;2024-02-23T09:48:37;4.05;;;2.00;;
31782;SDS011;18351;47.560;9.708;2024-02-23T09:51:03;6.25;;;3.08;;
31782;SDS011;18351;47.560;9.708;2024-02-23T09:53:30;5.35;;;2.53;;
31782;SDS011;18351;47.560;9.708;2024-02-23T09:55:56;3.33;;;2.20;;
31782;SDS011;18351;47.560;9.708;2024-02-23T09:58:24;3.40;;;1.95;;
31782;SDS011;18351;47.560;9.708;2024-02-23T10:00:51;2.40;;;1.70;;
31782;SDS011;18351;47.560;9.708;2024-02-23T10:03:17;3.47;;;1.42;;
31782;SDS011;18351;47.560;9.708;2024-02-23T10:05:43;2.40;;;1.58;;
31782;SDS011;18351;47.560;9.708;2024-02-23T10:08:10;4.75;;;1.40;;
31782;SDS011;18351;47.560;9.708;2024-02-23T10:10:37;3.47;;;1.50;;
31782;SDS011;18351;47.560;9.708;2024-02-23T10:13:03;3.25;;;1.58;;
31782;SDS011;18351;47.560;9.708;2024-02-23T10:15:31;2.97;;;1.73;;
31782;SDS011;18351;47.560;9.708;2024-02-23T10:17:57;4.72;;;1.60;;
31782;SDS011;18351;47.560;9.708;2024-02-23T10:20:22;2.25;;;1.65;;
31782;SDS011;18351;47.560;9.708;2024-02-23T10:22:48;3.33;;;2.22;;
31782;SDS011;18351;47.560;9.708;2024-02-23T10:25:15;11.15;;;5.25;;
31782;SDS011;18351;47.560;9.708;2024-02-23T10:27:41;7.30;;;2.92;;
31782;SDS011;18351;47.560;9.708;2024-02-23T10:30:09;5.05;;;2.38;;
31782;SDS011;18351;47.560;9.708;2024-02-23T10:32:39;5.05;;;2.17;;
31782;SDS011;18351;47.560;9.708;2024-02-23T10:35:09;6.25;;;2.13;;
31782;SDS011;18351;47.560;9.708;2024-02-23T10:37:38;2.58;;;1.80;;
31782;SDS011;18351;47.560;9.708;2024-02-23T10:40:03;8.07;;;3.60;;
31782;SDS011;18351;47.560;9.708;2024-02-23T10:42:33;18.38;;;5.47;;
31782;SDS011;18351;47.560;9.708;2024-02-23T10:45:00;8.00;;;2.85;;
31782;SDS011;18351;47.560;9.708;2024-02-23T10:47:26;4.72;;;2.20;;
31782;SDS011;18351;47.560;9.708;2024-02-23T10:49:55;3.15;;;2.10;;
31782;SDS011;18351;47.560;9.708;2024-02-23T10:52:24;5.32;;;2.33;;
31782;SDS011;18351;47.560;9.708;2024-02-23T10:54:51;7.03;;;2.17;;
31782;SDS011;18351;47.560;9.708;2024-02-23T10:57:18;3.13;;;2.10;;
31782;SDS011;18351;47.560;9.708;2024-02-23T10:59:47;3.92;;;1.88;;
31782;SDS011;18351;47.560;9.708;2024-02-23T11:02:14;5.68;;;1.98;;
31782;SDS011;18351;47.560;9.708;2024-02-23T11:04:48;3.47;;;1.80;;
31782;SDS011;18351;47.560;9.708;2024-02-23T11:07:15;5.25;;;2.35;;
31782;SDS011;18351;47.560;9.708;2024-02-23T11:09:43;7.45;;;2.80;;
31782;SDS011;18351;47.560;9.708;2024-02-23T11:12:21;8.30;;;2.45;;
31782;SDS011;18351;47.560;9.708;2024-02-23T11:14:49;4.70;;;2.13;;
31782;SDS011;18351;47.560;9.708;2024-02-23T11:17:18;3.90;;;2.30;;
31782;SDS011;18351;47.560;9.708;2024-02-23T11:19:50;3.97;;;2.13;;
31782;SDS011;18351;47.560;9.708;2024-02-23T11:22:24;7.60;;;2.20;;
31782;SDS011;18351;47.560;9.708;2024-02-23T11:25:05;3.50;;;1.63;;
31782;SDS011;18351;47.560;9.708;2024-02-23T11:27:33;2.22;;;1.60;;
31782;SDS011;18351;47.560;9.708;2024-02-23T11:30:01;4.85;;;1.95;;
31782;SDS011;18351;47.560;9.708;2024-02-23T11:32:43;5.05;;;2.05;;
31782;SDS011;18351;47.560;9.708;2024-02-23T11:37:54;3.00;;;1.80;;
31782;SDS011;18351;47.560;9.708;2024-02-23T11:40:24;3.75;;;2.15;;
31782;SDS011;18351;47.560;9.708;2024-02-23T11:42:50;5.53;;;2.80;;
31782;SDS011;18351;47.560;9.708;2024-02-23T11:45:16;4.07;;;2.28;;
31782;SDS011;18351;47.560;9.708;2024-02-23T11:47:42;4.15;;;2.05;;
31782;SDS011;18351;47.560;9.708;2024-02-23T11:50:08;4.97;;;2.10;;
31782;SDS011;18351;47.560;9.708;2024-02-23T11:52:36;5.43;;;2.20;;
31782;SDS011;18351;47.560;9.708;2024-02-23T11:55:02;3.63;;;1.90;;
31782;SDS011;18351;47.560;9.708;2024-02-23T11:57:30;6.22;;;2.50;;
31782;SDS011;18351;47.560;9.708;2024-02-23T11:59:56;5.50;;;2.28;;
31782;SDS011;18351;47.560;9.708;2024-02-23T12:02:23;3.88;;;2.08;;
31782;SDS011;18351;47.560;9.708;2024-02-23T12:04:49;4.35;;;2.30;;
31782;SDS011;18351;47.560;9.708;2024-02-23T12:07:14;3.25;;;2.38;;
31782;SDS011;18351;47.560;9.708;2024-02-23T12:09:41;3.97;;;2.15;;
31782;SDS011;18351;47.560;9.708;2024-02-23T12:12:06;5.32;;;2.53;;
31782;SDS011;18351;47.560;9.708;2024-02-23T12:14:35;6.07;;;2.30;;
31782;SDS011;18351;47.560;9.708;2024-02-23T12:17:02;5.35;;;2.70;;
31782;SDS011;18351;47.560;9.708;2024-02-23T12:19:29;3.53;;;2.55;;
31782;SDS011;18351;47.560;9.708;2024-02-23T12:21:59;4.38;;;2.97;;
31782;SDS011;18351;47.560;9.708;2024-02-23T12:24:26;5.47;;;3.17;;
31782;SDS011;18351;47.560;9.708;2024-02-23T12:26:55;3.60;;;2.05;;
31782;SDS011;18351;47.560;9.708;2024-02-23T12:29:21;6.03;;;2.30;;
31782;SDS011;18351;47.560;9.708;2024-02-23T12:31:46;4.97;;;2.13;;
31782;SDS011;18351;47.560;9.708;2024-02-23T12:34:12;4.50;;;2.13;;
31782;SDS011;18351;47.560;9.708;2024-02-23T12:36:38;4.35;;;2.05;;
31782;SDS011;18351;47.560;9.708;2024-02-23T12:39:04;5.72;;;1.58;;
31782;SDS011;18351;47.560;9.708;2024-02-23T12:41:30;1.40;;;1.30;;
31782;SDS011;18351;47.560;9.708;2024-02-23T12:43:56;3.20;;;1.30;;
31782;SDS011;18351;47.560;9.708;2024-02-23T12:46:21;6.10;;;2.80;;
31782;SDS011;18351;47.560;9.708;2024-02-23T12:48:48;3.47;;;1.70;;
31782;SDS011;18351;47.560;9.708;2024-02-23T12:51:14;3.60;;;1.85;;
31782;SDS011;18351;47.560;9.708;2024-02-23T12:53:40;4.03;;;2.28;;
31782;SDS011;18351;47.560;9.708;2024-02-23T12:58:36;4.95;;;2.20;;
31782;SDS011;18351;47.560;9.708;2024-02-23T13:01:06;5.28;;;1.85;;
31782;SDS011;18351;47.560;9.708;2024-02-23T13:03:32;2.30;;;1.88;;
31782;SDS011;18351;47.560;9.708;2024-02-23T13:05:59;3.03;;;1.98;;
31782;SDS011;18351;47.560;9.708;2024-02-23T13:08:25;2.90;;;1.75;;
31782;SDS011;18351;47.560;9.708;2024-02-23T13:10:51;6.80;;;2.88;;
31782;SDS011;18351;47.560;9.708;2024-02-23T13:13:18;5.47;;;1.98;;
31782;SDS011;18351;47.560;9.708;2024-02-23T13:15:44;3.00;;;1.90;;
31782;SDS011;18351;47.560;9.708;2024-02-23T13:18:10;3.05;;;1.85;;
31782;SDS011;18351;47.560;9.708;2024-02-23T13:20:39;12.30;;;2.30;;
31782;SDS011;18351;47.560;9.708;2024-02-23T13:23:06;3.47;;;2.38;;
31782;SDS011;18351;47.560;9.708;2024-02-23T13:25:33;3.28;;;1.80;;
31782;SDS011;18351;47.560;9.708;2024-02-23T13:28:02;6.55;;;2.30;;
31782;SDS011;18351;47.560;9.708;2024-02-23T13:30:31;3.00;;;2.13;;
31782;SDS011;18351;47.560;9.708;2024-02-23T13:32:57;4.35;;;2.40;;
31782;SDS011;18351;47.560;9.708;2024-02-23T13:35:22;4.35;;;2.75;;
31782;SDS011;18351;47.560;9.708;2024-02-23T13:37:48;2.67;;;2.45;;
31782;SDS011;18351;47.560;9.708;2024-02-23T13:40:14;3.83;;;2.05;;
31782;SDS011;18351;47.560;9.708;2024-02-23T13:42:40;7.45;;;2.33;;
31782;SDS011;18351;47.560;9.708;2024-02-23T13:45:06;4.88;;;2.80;;
31782;SDS011;18351;47.560;9.708;2024-02-23T13:47:32;3.38;;;1.90;;
31782;SDS011;18351;47.560;9.708;2024-02-23T13:49:59;3.30;;;2.38;;
31782;SDS011;18351;47.560;9.708;2024-02-23T13:52:24;2.20;;;2.00;;
31782;SDS011;18351;47.560;9.708;2024-02-23T13:54:50;3.92;;;2.20;;
31782;SDS011;18351;47.560;9.708;2024-02-23T13:57:16;2.20;;;1.88;;
31782;SDS011;18351;47.560;9.708;2024-02-23T13:59:41;3.17;;;2.30;;
31782;SDS011;18351;47.560;9.708;2024-02-23T14:02:07;4.60;;;2.03;;
31782;SDS011;18351;47.560;9.708;2024-02-23T14:04:32;2.13;;;1.92;;
31782;SDS011;18351;47.560;9.708;2024-02-23T14:06:58;2.83;;;1.92;;
31782;SDS011;18351;47.560;9.708;2024-02-23T14:09:24;3.15;;;1.80;;
31782;SDS011;18351;47.560;9.708;2024-02-23T14:11:49;2.80;;;1.92;;
31782;SDS011;18351;47.560;9.708;2024-02-23T14:14:15;2.85;;;2.17;;
31782;SDS011;18351;47.560;9.708;2024-02-23T14:16:41;2.35;;;1.75;;
31782;SDS011;18351;47.560;9.708;2024-02-23T14:19:07;4.25;;;1.88;;
31782;SDS011;18351;47.560;9.708;2024-02-23T14:21:33;7.82;;;1.75;;
31782;SDS011;18351;47.560;9.708;2024-02-23T14:24:00;2.13;;;1.50;;
31782;SDS011;18351;47.560;9.708;2024-02-23T14:26:26;4.97;;;1.75;;
31782;SDS011;18351;47.560;9.708;2024-02-23T14:28:52;5.57;;;1.80;;
31782;SDS011;18351;47.560;9.708;2024-02-23T14:31:18;2.85;;;1.70;;
31782;SDS011;18351;47.560;9.708;2024-02-23T14:33:43;3.22;;;1.60;;
31782;SDS011;18351;47.560;9.708;2024-02-23T14:36:09;2.10;;;1.42;;
31782;SDS011;18351;47.560;9.708;2024-02-23T14:38:34;2.80;;;1.80;;
31782;SDS011;18351;47.560;9.708;2024-02-23T14:41:00;4.35;;;1.70;;
31782;SDS011;18351;47.560;9.708;2024-02-23T14:43:25;4.50;;;1.75;;
31782;SDS011;18351;47.560;9.708;2024-02-23T14:45:51;3.58;;;1.67;;
31782;SDS011;18351;47.560;9.708;2024-02-23T14:48:17;2.55;;;1.60;;